sensor_id;sensor_type;location;lat;lon;timestamp;P1;durP1;ratioP1;P2;durP2;ratioP2
24739;SDS011;45234;48.148;17.128;2024-01-10T00:02:18;67.28;;;30.50;;
24739;SDS011;45234;48.148;17.128;2024-01-10T00:04:45;61.78;;;28.50;;
24739;SDS011;45234;48.148;17.128;2024-01-10T00:07:12;66.28;;;30.55;;
24739;SDS011;45234;48.148;17.128;2024-01-10T00:09:39;62.08;;;29.73;;
24739;SDS011;45234;48.148;17.128;2024-01-10T00:12:06;58.67;;;27.88;;
24739;SDS011;45234;48.148;17.128;2024-01-10T00:14:33;58.65;;;29.45;;
24739;SDS011;45234;48.148;17.128;2024-01-10T00:17:00;57.97;;;28.00;;
24739;SDS011;45234;48.148;17.128;2024-01-10T00:19:27;53.92;;;26.60;;
24739;SDS011;45234;48.148;17.128;2024-01-10T00:21:54;48.85;;;22.58;;
24739;SDS011;45234;48.148;17.128;2024-01-10T00:24:21;46.35;;;22.23;;
24739;SDS011;45234;48.148;17.128;2024-01-10T00:26:48;39.10;;;19.70;;
24739;SDS011;45234;48.148;17.128;2024-01-10T00:29:15;54.88;;;24.58;;
24739;SDS011;45234;48.148;17.128;2024-01-10T00:31:42;45.25;;;22.95;;
24739;SDS011;45234;48.148;17.128;2024-01-10T00:34:09;40.40;;;20.00;;
24739;SDS011;45234;48.148;17.128;2024-01-10T00:36:36;50.25;;;24.48;;
24739;SDS011;45234;48.148;17.128;2024-01-10T00:39:03;45.42;;;22.85;;
24739;SDS011;45234;48.148;17.128;2024-01-10T00:41:30;47.92;;;23.30;;
24739;SDS011;45234;48.148;17.128;2024-01-10T00:43:57;53.97;;;24.83;;
24739;SDS011;45234;48.148;17.128;2024-01-10T00:46:24;47.42;;;22.52;;
24739;SDS011;45234;48.148;17.128;2024-01-10T00:48:50;46.13;;;22.60;;
24739;SDS011;45234;48.148;17.128;2024-01-10T00:51:17;40.38;;;21.10;;
24739;SDS011;45234;48.148;17.128;2024-01-10T00:53:44;48.47;;;23.10;;
24739;SDS011;45234;48.148;17.128;2024-01-10T00:56:12;46.65;;;22.30;;
24739;SDS011;45234;48.148;17.128;2024-01-10T00:58:39;49.92;;;23.13;;
24739;SDS011;45234;48.148;17.128;2024-01-10T01:01:07;40.97;;;20.83;;
24739;SDS011;45234;48.148;17.128;2024-01-10T01:03:34;44.72;;;21.83;;
24739;SDS011;45234;48.148;17.128;2024-01-10T01:06:02;52.92;;;24.23;;
24739;SDS011;45234;48.148;17.128;2024-01-10T01:08:29;43.65;;;23.00;;
24739;SDS011;45234;48.148;17.128;2024-01-10T01:10:56;45.58;;;22.90;;
24739;SDS011;45234;48.148;17.128;2024-01-10T01:13:22;46.05;;;22.63;;
24739;SDS011;45234;48.148;17.128;2024-01-10T01:15:49;44.83;;;21.98;;
24739;SDS011;45234;48.148;17.128;2024-01-10T01:18:16;53.42;;;23.92;;
24739;SDS011;45234;48.148;17.128;2024-01-10T01:20:45;50.55;;;23.02;;
24739;SDS011;45234;48.148;17.128;2024-01-10T01:23:14;45.72;;;21.25;;
24739;SDS011;45234;48.148;17.128;2024-01-10T01:25:54;44.25;;;21.48;;
24739;SDS011;45234;48.148;17.128;2024-01-10T01:28:21;50.20;;;21.70;;
24739;SDS011;45234;48.148;17.128;2024-01-10T01:30:48;40.58;;;19.17;;
24739;SDS011;45234;48.148;17.128;2024-01-10T01:33:15;40.80;;;20.58;;
24739;SDS011;45234;48.148;17.128;2024-01-10T01:35:42;42.53;;;20.27;;
24739;SDS011;45234;48.148;17.128;2024-01-10T01:38:09;44.13;;;20.63;;
24739;SDS011;45234;48.148;17.128;2024-01-10T01:40:36;42.35;;;20.05;;
24739;SDS011;45234;48.148;17.128;2024-01-10T01:43:17;44.25;;;19.85;;
24739;SDS011;45234;48.148;17.128;2024-01-10T01:45:52;41.05;;;19.33;;
24739;SDS011;45234;48.148;17.128;2024-01-10T01:48:21;39.90;;;18.87;;
24739;SDS011;45234;48.148;17.128;2024-01-10T01:50:52;39.95;;;18.95;;
24739;SDS011;45234;48.148;17.128;2024-01-10T01:53:21;42.67;;;19.38;;
24739;SDS011;45234;48.148;17.128;2024-01-10T01:55:49;41.70;;;18.48;;
24739;SDS011;45234;48.148;17.128;2024-01-10T01:58:17;37.72;;;18.25;;
24739;SDS011;45234;48.148;17.128;2024-01-10T02:00:45;41.90;;;17.92;;
24739;SDS011;45234;48.148;17.128;2024-01-10T02:03:12;35.38;;;18.30;;
24739;SDS011;45234;48.148;17.128;2024-01-10T02:05:40;36.95;;;17.67;;
24739;SDS011;45234;48.148;17.128;2024-01-10T02:08:07;41.05;;;18.05;;
24739;SDS011;45234;48.148;17.128;2024-01-10T02:10:35;42.70;;;19.33;;
24739;SDS011;45234;48.148;17.128;2024-01-10T02:13:02;36.00;;;17.73;;
24739;SDS011;45234;48.148;17.128;2024-01-10T02:15:29;39.10;;;18.17;;
24739;SDS011;45234;48.148;17.128;2024-01-10T02:18:16;35.53;;;18.35;;
24739;SDS011;45234;48.148;17.128;2024-01-10T02:20:43;37.97;;;18.63;;
24739;SDS011;45234;48.148;17.128;2024-01-10T02:23:10;37.95;;;18.50;;
24739;SDS011;45234;48.148;17.128;2024-01-10T02:25:39;40.08;;;19.40;;
24739;SDS011;45234;48.148;17.128;2024-01-10T02:28:06;42.65;;;18.58;;
24739;SDS011;45234;48.148;17.128;2024-01-10T02:30:35;33.28;;;16.90;;
24739;SDS011;45234;48.148;17.128;2024-01-10T02:33:03;38.35;;;18.45;;
24739;SDS011;45234;48.148;17.128;2024-01-10T02:35:30;35.95;;;17.00;;
24739;SDS011;45234;48.148;17.128;2024-01-10T02:37:58;35.65;;;17.60;;
24739;SDS011;45234;48.148;17.128;2024-01-10T02:40:26;35.55;;;17.23;;
24739;SDS011;45234;48.148;17.128;2024-01-10T02:42:53;38.85;;;19.02;;
24739;SDS011;45234;48.148;17.128;2024-01-10T02:45:20;37.42;;;16.95;;
24739;SDS011;45234;48.148;17.128;2024-01-10T02:47:47;35.45;;;18.02;;
24739;SDS011;45234;48.148;17.128;2024-01-10T02:50:14;36.17;;;17.50;;
24739;SDS011;45234;48.148;17.128;2024-01-10T02:52:42;41.30;;;17.50;;
24739;SDS011;45234;48.148;17.128;2024-01-10T02:55:09;39.72;;;17.95;;
24739;SDS011;45234;48.148;17.128;2024-01-10T02:57:36;35.17;;;17.13;;
24739;SDS011;45234;48.148;17.128;2024-01-10T03:00:03;41.58;;;19.10;;
24739;SDS011;45234;48.148;17.128;2024-01-10T03:02:33;36.25;;;17.20;;
24739;SDS011;45234;48.148;17.128;2024-01-10T03:05:00;36.58;;;18.67;;
24739;SDS011;45234;48.148;17.128;2024-01-10T03:07:28;35.60;;;17.52;;
24739;SDS011;45234;48.148;17.128;2024-01-10T03:09:55;35.95;;;17.98;;
24739;SDS011;45234;48.148;17.128;2024-01-10T03:12:22;38.70;;;18.83;;
24739;SDS011;45234;48.148;17.128;2024-01-10T03:14:49;36.15;;;17.83;;
24739;SDS011;45234;48.148;17.128;2024-01-10T03:17:16;35.60;;;18.13;;
24739;SDS011;45234;48.148;17.128;2024-01-10T03:19:43;33.72;;;16.88;;
24739;SDS011;45234;48.148;17.128;2024-01-10T03:22:11;38.75;;;18.30;;
24739;SDS011;45234;48.148;17.128;2024-01-10T03:24:38;33.00;;;16.27;;
24739;SDS011;45234;48.148;17.128;2024-01-10T03:27:05;38.85;;;17.15;;
24739;SDS011;45234;48.148;17.128;2024-01-10T03:29:33;41.67;;;19.15;;
24739;SDS011;45234;48.148;17.128;2024-01-10T03:32:01;34.33;;;17.73;;
24739;SDS011;45234;48.148;17.128;2024-01-10T03:34:28;33.15;;;16.40;;
24739;SDS011;45234;48.148;17.128;2024-01-10T03:36:55;36.50;;;16.80;;
24739;SDS011;45234;48.148;17.128;2024-01-10T03:39:22;41.97;;;18.13;;
24739;SDS011;45234;48.148;17.128;2024-01-10T03:41:49;37.67;;;18.20;;
24739;SDS011;45234;48.148;17.128;2024-01-10T03:44:16;32.85;;;17.15;;
24739;SDS011;45234;48.148;17.128;2024-01-10T03:46:43;35.47;;;17.02;;
24739;SDS011;45234;48.148;17.128;2024-01-10T03:49:10;34.78;;;16.13;;
24739;SDS011;45234;48.148;17.128;2024-01-10T03:51:38;41.08;;;16.27;;
24739;SDS011;45234;48.148;17.128;2024-01-10T03:54:07;36.50;;;16.52;;
24739;SDS011;45234;48.148;17.128;2024-01-10T03:56:34;33.28;;;16.02;;
24739;SDS011;45234;48.148;17.128;2024-01-10T03:59:01;33.45;;;16.00;;
24739;SDS011;45234;48.148;17.128;2024-01-10T04:01:28;32.67;;;16.10;;
24739;SDS011;45234;48.148;17.128;2024-01-10T04:03:55;35.08;;;16.70;;
24739;SDS011;45234;48.148;17.128;2024-01-10T04:06:22;32.50;;;15.63;;
24739;SDS011;45234;48.148;17.128;2024-01-10T04:08:50;32.17;;;17.15;;
24739;SDS011;45234;48.148;17.128;2024-01-10T04:11:16;35.22;;;16.73;;
24739;SDS011;45234;48.148;17.128;2024-01-10T04:13:44;29.95;;;15.70;;
24739;SDS011;45234;48.148;17.128;2024-01-10T04:16:10;34.97;;;16.00;;
24739;SDS011;45234;48.148;17.128;2024-01-10T04:18:38;32.97;;;16.15;;
24739;SDS011;45234;48.148;17.128;2024-01-10T04:21:05;29.73;;;15.25;;
24739;SDS011;45234;48.148;17.128;2024-01-10T04:23:33;34.35;;;16.00;;
24739;SDS011;45234;48.148;17.128;2024-01-10T04:26:01;34.70;;;15.65;;
24739;SDS011;45234;48.148;17.128;2024-01-10T04:28:29;32.80;;;15.80;;
24739;SDS011;45234;48.148;17.128;2024-01-10T04:30:56;32.97;;;15.02;;
24739;SDS011;45234;48.148;17.128;2024-01-10T04:33:23;33.03;;;17.85;;
24739;SDS011;45234;48.148;17.128;2024-01-10T04:35:50;31.15;;;14.98;;
24739;SDS011;45234;48.148;17.128;2024-01-10T04:38:17;32.08;;;15.27;;
24739;SDS011;45234;48.148;17.128;2024-01-10T04:40:44;33.58;;;15.60;;
24739;SDS011;45234;48.148;17.128;2024-01-10T04:43:11;38.25;;;17.35;;
24739;SDS011;45234;48.148;17.128;2024-01-10T04:45:38;36.00;;;16.77;;
24739;SDS011;45234;48.148;17.128;2024-01-10T04:48:05;32.17;;;15.70;;
24739;SDS011;45234;48.148;17.128;2024-01-10T04:50:32;36.85;;;15.93;;
24739;SDS011;45234;48.148;17.128;2024-01-10T04:53:00;35.88;;;16.48;;
24739;SDS011;45234;48.148;17.128;2024-01-10T04:55:27;31.52;;;16.00;;
24739;SDS011;45234;48.148;17.128;2024-01-10T04:57:54;34.40;;;16.90;;
24739;SDS011;45234;48.148;17.128;2024-01-10T05:00:21;33.53;;;16.70;;
24739;SDS011;45234;48.148;17.128;2024-01-10T05:02:56;38.53;;;17.42;;
24739;SDS011;45234;48.148;17.128;2024-01-10T05:05:23;39.80;;;16.27;;
24739;SDS011;45234;48.148;17.128;2024-01-10T05:07:51;33.58;;;16.42;;
24739;SDS011;45234;48.148;17.128;2024-01-10T05:10:17;29.73;;;15.20;;
24739;SDS011;45234;48.148;17.128;2024-01-10T05:12:44;33.50;;;15.70;;
24739;SDS011;45234;48.148;17.128;2024-01-10T05:15:11;36.20;;;15.77;;
24739;SDS011;45234;48.148;17.128;2024-01-10T05:17:38;34.20;;;16.60;;
24739;SDS011;45234;48.148;17.128;2024-01-10T05:20:05;30.13;;;16.25;;
24739;SDS011;45234;48.148;17.128;2024-01-10T05:22:34;35.20;;;15.40;;
24739;SDS011;45234;48.148;17.128;2024-01-10T05:25:01;31.70;;;15.48;;
24739;SDS011;45234;48.148;17.128;2024-01-10T05:27:30;34.90;;;15.80;;
24739;SDS011;45234;48.148;17.128;2024-01-10T05:29:57;30.00;;;15.50;;
24739;SDS011;45234;48.148;17.128;2024-01-10T05:32:26;36.25;;;15.60;;
24739;SDS011;45234;48.148;17.128;2024-01-10T05:34:53;32.80;;;16.10;;
24739;SDS011;45234;48.148;17.128;2024-01-10T05:37:20;33.40;;;16.83;;
24739;SDS011;45234;48.148;17.128;2024-01-10T05:39:48;31.30;;;15.52;;
24739;SDS011;45234;48.148;17.128;2024-01-10T05:42:15;34.50;;;16.33;;
24739;SDS011;45234;48.148;17.128;2024-01-10T05:44:42;29.05;;;14.82;;
24739;SDS011;45234;48.148;17.128;2024-01-10T05:47:09;31.98;;;15.25;;
24739;SDS011;45234;48.148;17.128;2024-01-10T05:49:37;29.60;;;15.27;;
24739;SDS011;45234;48.148;17.128;2024-01-10T05:52:04;40.20;;;16.10;;
24739;SDS011;45234;48.148;17.128;2024-01-10T05:54:31;31.05;;;15.10;;
24739;SDS011;45234;48.148;17.128;2024-01-10T05:56:58;32.35;;;16.08;;
24739;SDS011;45234;48.148;17.128;2024-01-10T05:59:26;33.90;;;15.10;;
24739;SDS011;45234;48.148;17.128;2024-01-10T06:01:55;34.40;;;14.88;;
24739;SDS011;45234;48.148;17.128;2024-01-10T06:04:22;33.28;;;16.27;;
24739;SDS011;45234;48.148;17.128;2024-01-10T06:06:49;29.13;;;14.63;;
24739;SDS011;45234;48.148;17.128;2024-01-10T06:09:16;30.85;;;15.38;;
24739;SDS011;45234;48.148;17.128;2024-01-10T06:11:48;35.95;;;17.17;;
24739;SDS011;45234;48.148;17.128;2024-01-10T06:14:15;30.20;;;15.20;;
24739;SDS011;45234;48.148;17.128;2024-01-10T06:16:43;32.67;;;15.85;;
24739;SDS011;45234;48.148;17.128;2024-01-10T06:19:11;32.67;;;15.75;;
24739;SDS011;45234;48.148;17.128;2024-01-10T06:21:38;38.45;;;15.05;;
24739;SDS011;45234;48.148;17.128;2024-01-10T06:24:05;34.85;;;15.98;;
24739;SDS011;45234;48.148;17.128;2024-01-10T06:26:34;37.70;;;16.40;;
24739;SDS011;45234;48.148;17.128;2024-01-10T06:29:01;32.10;;;15.05;;
24739;SDS011;45234;48.148;17.128;2024-01-10T06:31:28;34.13;;;15.88;;
24739;SDS011;45234;48.148;17.128;2024-01-10T06:33:55;34.05;;;16.58;;
24739;SDS011;45234;48.148;17.128;2024-01-10T06:36:22;32.83;;;16.45;;
24739;SDS011;45234;48.148;17.128;2024-01-10T06:38:48;32.85;;;16.30;;
24739;SDS011;45234;48.148;17.128;2024-01-10T06:41:15;33.63;;;15.20;;
24739;SDS011;45234;48.148;17.128;2024-01-10T06:43:43;35.45;;;15.25;;
24739;SDS011;45234;48.148;17.128;2024-01-10T06:46:10;30.15;;;15.27;;
24739;SDS011;45234;48.148;17.128;2024-01-10T06:48:37;31.83;;;16.58;;
24739;SDS011;45234;48.148;17.128;2024-01-10T06:51:13;28.48;;;14.63;;
24739;SDS011;45234;48.148;17.128;2024-01-10T06:53:41;36.40;;;15.60;;
24739;SDS011;45234;48.148;17.128;2024-01-10T06:56:09;33.75;;;14.98;;
24739;SDS011;45234;48.148;17.128;2024-01-10T06:58:36;31.80;;;16.00;;
24739;SDS011;45234;48.148;17.128;2024-01-10T07:01:04;40.10;;;17.23;;
24739;SDS011;45234;48.148;17.128;2024-01-10T07:03:39;37.42;;;17.20;;
24739;SDS011;45234;48.148;17.128;2024-01-10T07:06:06;34.60;;;17.58;;
24739;SDS011;45234;48.148;17.128;2024-01-10T07:08:33;32.38;;;16.67;;
24739;SDS011;45234;48.148;17.128;2024-01-10T07:11:00;35.20;;;16.17;;
24739;SDS011;45234;48.148;17.128;2024-01-10T07:13:27;31.20;;;15.40;;
24739;SDS011;45234;48.148;17.128;2024-01-10T07:15:54;29.02;;;14.82;;
24739;SDS011;45234;48.148;17.128;2024-01-10T07:18:21;30.08;;;16.08;;
24739;SDS011;45234;48.148;17.128;2024-01-10T07:20:47;33.17;;;16.42;;
24739;SDS011;45234;48.148;17.128;2024-01-10T07:23:15;30.17;;;15.02;;
24739;SDS011;45234;48.148;17.128;2024-01-10T07:25:42;28.98;;;16.20;;
24739;SDS011;45234;48.148;17.128;2024-01-10T07:28:09;29.67;;;15.98;;
24739;SDS011;45234;48.148;17.128;2024-01-10T07:30:36;37.47;;;17.23;;
24739;SDS011;45234;48.148;17.128;2024-01-10T07:33:03;31.05;;;16.40;;
24739;SDS011;45234;48.148;17.128;2024-01-10T07:35:31;33.95;;;16.80;;
24739;SDS011;45234;48.148;17.128;2024-01-10T07:37:57;31.85;;;15.65;;
24739;SDS011;45234;48.148;17.128;2024-01-10T07:40:25;33.45;;;16.15;;
24739;SDS011;45234;48.148;17.128;2024-01-10T07:42:52;29.33;;;15.68;;
24739;SDS011;45234;48.148;17.128;2024-01-10T07:45:19;32.47;;;16.10;;
24739;SDS011;45234;48.148;17.128;2024-01-10T07:47:46;31.05;;;15.50;;
24739;SDS011;45234;48.148;17.128;2024-01-10T07:50:13;35.55;;;16.88;;
24739;SDS011;45234;48.148;17.128;2024-01-10T07:52:41;35.00;;;17.10;;
24739;SDS011;45234;48.148;17.128;2024-01-10T07:55:09;38.38;;;17.73;;
24739;SDS011;45234;48.148;17.128;2024-01-10T07:57:36;35.17;;;18.67;;
24739;SDS011;45234;48.148;17.128;2024-01-10T08:00:05;31.70;;;17.20;;
24739;SDS011;45234;48.148;17.128;2024-01-10T08:02:39;33.13;;;16.50;;
24739;SDS011;45234;48.148;17.128;2024-01-10T08:05:06;35.17;;;16.75;;
24739;SDS011;45234;48.148;17.128;2024-01-10T08:07:38;34.50;;;16.63;;
24739;SDS011;45234;48.148;17.128;2024-01-10T08:10:06;35.88;;;17.45;;
24739;SDS011;45234;48.148;17.128;2024-01-10T08:12:36;34.65;;;17.95;;
24739;SDS011;45234;48.148;17.128;2024-01-10T08:15:12;36.58;;;17.08;;
24739;SDS011;45234;48.148;17.128;2024-01-10T08:17:40;29.42;;;16.92;;
24739;SDS011;45234;48.148;17.128;2024-01-10T08:20:07;34.80;;;16.58;;
24739;SDS011;45234;48.148;17.128;2024-01-10T08:22:37;31.10;;;15.27;;
24739;SDS011;45234;48.148;17.128;2024-01-10T08:25:04;32.30;;;15.70;;
24739;SDS011;45234;48.148;17.128;2024-01-10T08:27:32;30.83;;;15.50;;
24739;SDS011;45234;48.148;17.128;2024-01-10T08:30:02;33.83;;;17.38;;
24739;SDS011;45234;48.148;17.128;2024-01-10T08:32:31;31.92;;;17.17;;
24739;SDS011;45234;48.148;17.128;2024-01-10T08:34:59;35.10;;;16.48;;
24739;SDS011;45234;48.148;17.128;2024-01-10T08:37:27;28.08;;;14.27;;
24739;SDS011;45234;48.148;17.128;2024-01-10T08:39:54;30.45;;;15.88;;
24739;SDS011;45234;48.148;17.128;2024-01-10T08:42:21;32.30;;;15.90;;
24739;SDS011;45234;48.148;17.128;2024-01-10T08:44:48;26.83;;;14.48;;
24739;SDS011;45234;48.148;17.128;2024-01-10T08:47:15;28.92;;;15.50;;
24739;SDS011;45234;48.148;17.128;2024-01-10T08:49:42;29.30;;;15.30;;
24739;SDS011;45234;48.148;17.128;2024-01-10T08:52:09;30.75;;;15.13;;
24739;SDS011;45234;48.148;17.128;2024-01-10T08:54:37;29.13;;;15.93;;
24739;SDS011;45234;48.148;17.128;2024-01-10T08:57:04;29.45;;;15.15;;
24739;SDS011;45234;48.148;17.128;2024-01-10T08:59:31;35.30;;;16.85;;
24739;SDS011;45234;48.148;17.128;2024-01-10T09:01:58;29.45;;;14.27;;
24739;SDS011;45234;48.148;17.128;2024-01-10T09:04:25;30.10;;;14.10;;
24739;SDS011;45234;48.148;17.128;2024-01-10T09:06:51;30.38;;;14.80;;
24739;SDS011;45234;48.148;17.128;2024-01-10T09:09:20;32.60;;;15.55;;
24739;SDS011;45234;48.148;17.128;2024-01-10T09:11:47;33.45;;;16.70;;
24739;SDS011;45234;48.148;17.128;2024-01-10T09:14:14;28.88;;;15.65;;
24739;SDS011;45234;48.148;17.128;2024-01-10T09:16:41;30.83;;;15.25;;
24739;SDS011;45234;48.148;17.128;2024-01-10T09:19:08;30.90;;;15.65;;
24739;SDS011;45234;48.148;17.128;2024-01-10T09:21:38;31.17;;;16.00;;
24739;SDS011;45234;48.148;17.128;2024-01-10T09:24:06;31.05;;;15.95;;
24739;SDS011;45234;48.148;17.128;2024-01-10T09:26:53;33.38;;;15.18;;
24739;SDS011;45234;48.148;17.128;2024-01-10T09:29:20;27.92;;;15.38;;
24739;SDS011;45234;48.148;17.128;2024-01-10T09:31:48;34.40;;;15.85;;
24739;SDS011;45234;48.148;17.128;2024-01-10T09:34:15;29.38;;;15.25;;
24739;SDS011;45234;48.148;17.128;2024-01-10T09:36:42;26.02;;;14.25;;
24739;SDS011;45234;48.148;17.128;2024-01-10T09:39:09;35.63;;;16.15;;
24739;SDS011;45234;48.148;17.128;2024-01-10T09:41:45;32.22;;;15.07;;
24739;SDS011;45234;48.148;17.128;2024-01-10T09:44:18;33.33;;;15.38;;
24739;SDS011;45234;48.148;17.128;2024-01-10T09:46:48;28.63;;;15.77;;
24739;SDS011;45234;48.148;17.128;2024-01-10T09:49:20;32.63;;;15.57;;
24739;SDS011;45234;48.148;17.128;2024-01-10T09:51:49;32.08;;;16.30;;
24739;SDS011;45234;48.148;17.128;2024-01-10T09:54:18;30.27;;;16.00;;
24739;SDS011;45234;48.148;17.128;2024-01-10T09:56:47;29.92;;;16.23;;
24739;SDS011;45234;48.148;17.128;2024-01-10T09:59:14;35.65;;;15.82;;
24739;SDS011;45234;48.148;17.128;2024-01-10T10:01:42;37.72;;;17.25;;
24739;SDS011;45234;48.148;17.128;2024-01-10T10:04:11;33.90;;;15.77;;
24739;SDS011;45234;48.148;17.128;2024-01-10T10:06:38;34.30;;;15.48;;
24739;SDS011;45234;48.148;17.128;2024-01-10T10:09:06;31.02;;;15.68;;
24739;SDS011;45234;48.148;17.128;2024-01-10T10:11:34;32.65;;;16.23;;
24739;SDS011;45234;48.148;17.128;2024-01-10T10:14:35;29.90;;;15.45;;
24739;SDS011;45234;48.148;17.128;2024-01-10T10:16:56;33.60;;;15.25;;
24739;SDS011;45234;48.148;17.128;2024-01-10T10:19:43;30.95;;;16.75;;
24739;SDS011;45234;48.148;17.128;2024-01-10T10:22:10;32.97;;;16.40;;
24739;SDS011;45234;48.148;17.128;2024-01-10T10:24:37;29.00;;;14.57;;
24739;SDS011;45234;48.148;17.128;2024-01-10T10:27:09;31.88;;;16.73;;
24739;SDS011;45234;48.148;17.128;2024-01-10T10:29:39;29.38;;;15.07;;
24739;SDS011;45234;48.148;17.128;2024-01-10T10:32:06;37.65;;;16.08;;
24739;SDS011;45234;48.148;17.128;2024-01-10T10:34:34;29.50;;;14.93;;
24739;SDS011;45234;48.148;17.128;2024-01-10T10:37:01;35.08;;;16.23;;
24739;SDS011;45234;48.148;17.128;2024-01-10T10:39:29;38.58;;;16.35;;
24739;SDS011;45234;48.148;17.128;2024-01-10T10:41:55;29.88;;;15.38;;
24739;SDS011;45234;48.148;17.128;2024-01-10T10:44:24;30.88;;;15.32;;
24739;SDS011;45234;48.148;17.128;2024-01-10T10:46:53;26.25;;;14.68;;
24739;SDS011;45234;48.148;17.128;2024-01-10T10:49:36;33.08;;;16.38;;
24739;SDS011;45234;48.148;17.128;2024-01-10T10:52:16;31.75;;;15.93;;
24739;SDS011;45234;48.148;17.128;2024-01-10T10:54:45;32.17;;;16.73;;
24739;SDS011;45234;48.148;17.128;2024-01-10T10:57:13;36.58;;;16.23;;
24739;SDS011;45234;48.148;17.128;2024-01-10T10:59:43;32.28;;;16.38;;
24739;SDS011;45234;48.148;17.128;2024-01-10T11:02:12;37.95;;;15.45;;
24739;SDS011;45234;48.148;17.128;2024-01-10T11:04:46;30.10;;;14.82;;
24739;SDS011;45234;48.148;17.128;2024-01-10T11:07:13;31.50;;;15.63;;
24739;SDS011;45234;48.148;17.128;2024-01-10T11:09:41;26.52;;;13.68;;
24739;SDS011;45234;48.148;17.128;2024-01-10T11:21:14;28.35;;;14.02;;
24739;SDS011;45234;48.148;17.128;2024-01-10T11:23:56;26.95;;;13.90;;
24739;SDS011;45234;48.148;17.128;2024-01-10T11:26:25;26.93;;;13.70;;
24739;SDS011;45234;48.148;17.128;2024-01-10T11:28:53;29.25;;;14.50;;
24739;SDS011;45234;48.148;17.128;2024-01-10T11:31:29;24.67;;;14.18;;
24739;SDS011;45234;48.148;17.128;2024-01-10T11:34:00;25.15;;;13.60;;
24739;SDS011;45234;48.148;17.128;2024-01-10T11:36:31;24.25;;;13.02;;
24739;SDS011;45234;48.148;17.128;2024-01-10T11:38:59;28.90;;;13.48;;
24739;SDS011;45234;48.148;17.128;2024-01-10T11:41:34;31.48;;;15.40;;
24739;SDS011;45234;48.148;17.128;2024-01-10T11:46:46;25.60;;;13.65;;
24739;SDS011;45234;48.148;17.128;2024-01-10T11:49:19;25.33;;;13.27;;
24739;SDS011;45234;48.148;17.128;2024-01-10T11:51:47;23.40;;;12.80;;
24739;SDS011;45234;48.148;17.128;2024-01-10T11:59:52;35.03;;;13.83;;
24739;SDS011;45234;48.148;17.128;2024-01-10T12:02:21;40.38;;;14.13;;
24739;SDS011;45234;48.148;17.128;2024-01-10T12:04:53;28.80;;;14.98;;
24739;SDS011;45234;48.148;17.128;2024-01-10T12:07:21;26.50;;;13.32;;
24739;SDS011;45234;48.148;17.128;2024-01-10T12:09:49;30.90;;;13.57;;
24739;SDS011;45234;48.148;17.128;2024-01-10T12:12:16;28.30;;;14.80;;
24739;SDS011;45234;48.148;17.128;2024-01-10T12:14:44;24.42;;;13.48;;
24739;SDS011;45234;48.148;17.128;2024-01-10T12:17:12;26.65;;;14.30;;
24739;SDS011;45234;48.148;17.128;2024-01-10T12:19:39;27.52;;;14.55;;
24739;SDS011;45234;48.148;17.128;2024-01-10T12:22:12;28.92;;;14.40;;
24739;SDS011;45234;48.148;17.128;2024-01-10T12:24:43;26.95;;;14.05;;
24739;SDS011;45234;48.148;17.128;2024-01-10T12:27:17;25.40;;;13.80;;
24739;SDS011;45234;48.148;17.128;2024-01-10T12:29:49;27.92;;;14.75;;
24739;SDS011;45234;48.148;17.128;2024-01-10T12:32:19;25.42;;;13.68;;
24739;SDS011;45234;48.148;17.128;2024-01-10T12:34:54;25.90;;;14.48;;
24739;SDS011;45234;48.148;17.128;2024-01-10T12:37:29;26.67;;;14.07;;
24739;SDS011;45234;48.148;17.128;2024-01-10T12:39:56;27.48;;;15.10;;
24739;SDS011;45234;48.148;17.128;2024-01-10T12:42:23;26.40;;;14.25;;
24739;SDS011;45234;48.148;17.128;2024-01-10T12:44:50;27.65;;;15.18;;
24739;SDS011;45234;48.148;17.128;2024-01-10T12:47:18;30.10;;;15.45;;
24739;SDS011;45234;48.148;17.128;2024-01-10T12:49:46;23.17;;;14.00;;
24739;SDS011;45234;48.148;17.128;2024-01-10T12:52:13;29.67;;;14.52;;
24739;SDS011;45234;48.148;17.128;2024-01-10T12:54:45;29.67;;;14.23;;
24739;SDS011;45234;48.148;17.128;2024-01-10T12:57:11;28.55;;;14.15;;
24739;SDS011;45234;48.148;17.128;2024-01-10T12:59:38;27.75;;;14.48;;
24739;SDS011;45234;48.148;17.128;2024-01-10T13:02:05;26.83;;;14.10;;
24739;SDS011;45234;48.148;17.128;2024-01-10T13:04:32;29.58;;;14.88;;
24739;SDS011;45234;48.148;17.128;2024-01-10T13:06:59;28.00;;;14.32;;
24739;SDS011;45234;48.148;17.128;2024-01-10T13:09:27;26.70;;;14.38;;
24739;SDS011;45234;48.148;17.128;2024-01-10T13:11:54;24.45;;;13.25;;
24739;SDS011;45234;48.148;17.128;2024-01-10T13:14:21;26.27;;;14.18;;
24739;SDS011;45234;48.148;17.128;2024-01-10T13:16:48;28.33;;;13.85;;
24739;SDS011;45234;48.148;17.128;2024-01-10T13:19:24;27.15;;;14.27;;
24739;SDS011;45234;48.148;17.128;2024-01-10T13:21:52;24.58;;;13.70;;
24739;SDS011;45234;48.148;17.128;2024-01-10T13:24:19;25.88;;;14.50;;
24739;SDS011;45234;48.148;17.128;2024-01-10T13:26:46;22.20;;;12.48;;
24739;SDS011;45234;48.148;17.128;2024-01-10T13:29:15;28.05;;;14.40;;
24739;SDS011;45234;48.148;17.128;2024-01-10T13:31:42;25.13;;;13.55;;
24739;SDS011;45234;48.148;17.128;2024-01-10T13:34:09;25.77;;;13.13;;
24739;SDS011;45234;48.148;17.128;2024-01-10T13:36:38;24.95;;;14.27;;
24739;SDS011;45234;48.148;17.128;2024-01-10T13:39:05;25.08;;;14.32;;
24739;SDS011;45234;48.148;17.128;2024-01-10T13:41:33;26.63;;;13.90;;
24739;SDS011;45234;48.148;17.128;2024-01-10T13:44:00;26.95;;;13.32;;
24739;SDS011;45234;48.148;17.128;2024-01-10T13:46:27;28.77;;;13.90;;
24739;SDS011;45234;48.148;17.128;2024-01-10T13:48:54;26.33;;;14.13;;
24739;SDS011;45234;48.148;17.128;2024-01-10T13:51:21;26.65;;;14.43;;
24739;SDS011;45234;48.148;17.128;2024-01-10T13:53:48;26.13;;;14.70;;
24739;SDS011;45234;48.148;17.128;2024-01-10T13:56:16;28.88;;;15.70;;
24739;SDS011;45234;48.148;17.128;2024-01-10T13:58:43;29.50;;;14.32;;
24739;SDS011;45234;48.148;17.128;2024-01-10T14:01:10;29.70;;;15.30;;
24739;SDS011;45234;48.148;17.128;2024-01-10T14:03:36;28.70;;;14.43;;
24739;SDS011;45234;48.148;17.128;2024-01-10T14:06:03;31.02;;;14.20;;
24739;SDS011;45234;48.148;17.128;2024-01-10T14:08:31;28.88;;;15.13;;
24739;SDS011;45234;48.148;17.128;2024-01-10T14:10:59;25.73;;;14.77;;
24739;SDS011;45234;48.148;17.128;2024-01-10T14:13:26;28.33;;;15.13;;
24739;SDS011;45234;48.148;17.128;2024-01-10T14:15:53;28.42;;;14.55;;
24739;SDS011;45234;48.148;17.128;2024-01-10T14:18:20;30.52;;;15.02;;
24739;SDS011;45234;48.148;17.128;2024-01-10T14:20:47;27.83;;;14.55;;
24739;SDS011;45234;48.148;17.128;2024-01-10T14:23:14;28.92;;;13.68;;
24739;SDS011;45234;48.148;17.128;2024-01-10T14:25:44;24.52;;;13.73;;
24739;SDS011;45234;48.148;17.128;2024-01-10T14:28:11;25.90;;;13.98;;
24739;SDS011;45234;48.148;17.128;2024-01-10T14:30:43;27.38;;;14.82;;
24739;SDS011;45234;48.148;17.128;2024-01-10T14:33:10;31.13;;;14.90;;